createdAt,value
2018-03-21T00:00:46.654Z,97.4
2018-03-21T00:01:47.337Z,97.2
2018-03-21T00:02:47.991Z,97.3
2018-03-21T00:03:48.633Z,97.5
2018-03-21T00:04:49.283Z,97.4
2018-03-21T00:05:49.930Z,97.6
2018-03-21T00:06:50.576Z,97.2
2018-03-21T00:07:51.224Z,97.6
2018-03-21T00:08:51.871Z,97.7
2018-03-21T00:09:52.520Z,97.9
2018-03-21T00:10:53.167Z,97.7
2018-03-21T00:11:53.815Z,97.6
2018-03-21T00:12:54.462Z,97.8
2018-03-21T00:13:55.113Z,97.2
2018-03-21T00:14:55.762Z,97.6
2018-03-21T00:15:56.409Z,97.4
2018-03-21T00:16:57.057Z,97.8
2018-03-21T00:17:57.704Z,98.0
2018-03-21T00:18:58.354Z,97.8
2018-03-21T00:19:59.007Z,97.6
2018-03-21T00:20:59.687Z,98.0
2018-03-21T00:22:00.335Z,98.0
2018-03-21T00:23:00.983Z,98.3
2018-03-21T00:24:01.633Z,98.1
2018-03-21T00:25:02.281Z,98.0
2018-03-21T00:26:02.929Z,98.2
2018-03-21T00:27:03.575Z,98.1
2018-03-21T00:28:04.224Z,98.1
2018-03-21T00:29:04.871Z,98.3
2018-03-21T00:30:05.556Z,98.3
2018-03-21T00:31:06.204Z,97.5
2018-03-21T00:32:06.853Z,98.0
2018-03-21T00:33:07.500Z,97.7
2018-03-21T00:34:08.147Z,97.6
2018-03-21T00:35:08.796Z,97.2
2018-03-21T00:36:09.445Z,96.9
2018-03-21T00:37:10.130Z,97.3
2018-03-21T00:38:10.777Z,96.7
2018-03-21T00:39:11.425Z,96.9
2018-03-21T00:40:12.072Z,96.0
2018-03-21T00:41:12.722Z,96.4
2018-03-21T00:42:13.370Z,96.1
2018-03-21T00:43:14.016Z,96.0
2018-03-21T00:44:14.663Z,95.4
2018-03-21T00:45:15.313Z,95.7
2018-03-21T00:46:15.962Z,95.3
2018-03-21T00:47:16.644Z,95.1
2018-03-21T00:48:17.291Z,95.6
2018-03-21T00:49:17.940Z,95.1
2018-03-21T00:50:18.586Z,95.1
2018-03-21T00:51:19.234Z,95.7
2018-03-21T00:52:19.882Z,95.6
2018-03-21T00:53:20.528Z,95.5
2018-03-21T00:54:21.178Z,95.6
2018-03-21T00:55:21.832Z,95.3
2018-03-21T00:56:22.511Z,96.0
2018-03-21T00:57:23.157Z,95.9
2018-03-21T00:58:23.806Z,96.0
2018-03-21T00:59:24.453Z,95.8
2018-03-21T01:00:25.102Z,95.9
2018-03-21T01:01:25.749Z,96.3
2018-03-21T01:02:26.397Z,96.3
2018-03-21T01:03:27.046Z,96.4
2018-03-21T01:04:27.694Z,96.2
2018-03-21T01:05:28.347Z,96.3
2018-03-21T01:06:28.990Z,96.0
2018-03-21T01:07:29.640Z,96.1
2018-03-21T01:08:30.289Z,96.1
2018-03-21T01:09:30.936Z,96.4
2018-03-21T01:10:31.586Z,96.3
2018-03-21T01:11:32.234Z,96.1
2018-03-21T01:12:32.882Z,96.0
2018-03-21T01:13:33.529Z,95.8
2018-03-21T01:14:34.177Z,95.9
2018-03-21T01:15:34.824Z,95.9
2018-03-21T01:16:35.471Z,96.2
2018-03-21T01:17:36.120Z,95.6
2018-03-21T01:18:36.766Z,96.3
2018-03-21T01:19:37.414Z,96.3
2018-03-21T01:20:38.061Z,96.3
2018-03-21T01:21:38.709Z,95.8
2018-03-21T01:22:39.357Z,95.6
2018-03-21T01:23:40.005Z,95.9
2018-03-21T01:24:40.652Z,96.3
2018-03-21T01:25:41.298Z,96.0
2018-03-21T01:26:41.947Z,96.0
2018-03-21T01:27:42.594Z,96.2
2018-03-21T01:28:43.240Z,95.8
2018-03-21T01:29:43.892Z,95.8
2018-03-21T01:30:44.536Z,96.5
2018-03-21T01:31:45.185Z,96.0
2018-03-21T01:32:45.835Z,96.2
2018-03-21T01:33:46.485Z,95.9
2018-03-21T01:34:47.131Z,95.4
2018-03-21T01:35:47.778Z,95.4
2018-03-21T01:36:48.426Z,95.4
2018-03-21T01:37:49.074Z,95.4
2018-03-21T01:38:49.721Z,95.4
2018-03-21T01:39:50.369Z,94.7
2018-03-21T01:40:51.016Z,94.9
2018-03-21T01:41:51.667Z,94.7
2018-03-21T01:42:52.311Z,94.6
2018-03-21T01:43:52.960Z,94.8
2018-03-21T01:44:53.612Z,94.8
2018-03-21T01:45:54.292Z,94.9
2018-03-21T01:46:54.938Z,94.3
2018-03-21T01:47:55.586Z,94.7
2018-03-21T01:48:56.233Z,94.4
2018-03-21T01:49:56.881Z,94.4
2018-03-21T01:50:57.530Z,94.4
2018-03-21T01:51:58.176Z,94.3
2018-03-21T01:52:58.824Z,94.3
2018-03-21T01:53:59.470Z,94.4
2018-03-21T01:55:00.120Z,94.6
2018-03-21T01:56:00.766Z,94.1
2018-03-21T01:57:01.414Z,94.6
2018-03-21T01:58:02.060Z,94.4
2018-03-21T01:59:02.707Z,94.6
2018-03-21T02:00:03.356Z,94.7
2018-03-21T02:01:04.003Z,94.0
2018-03-21T02:02:04.651Z,94.4
2018-03-21T02:03:05.298Z,94.2
2018-03-21T02:04:05.946Z,94.4
2018-03-21T02:05:06.595Z,94.4
2018-03-21T02:06:07.240Z,94.2
2018-03-21T02:07:07.887Z,94.4
2018-03-21T02:08:08.533Z,94.4
2018-03-21T02:09:09.185Z,94.0
2018-03-21T02:10:09.827Z,94.3
2018-03-21T02:11:10.474Z,94.4
2018-03-21T02:12:11.122Z,94.4
2018-03-21T02:13:11.770Z,94.6
2018-03-21T02:14:12.419Z,94.3
2018-03-21T02:15:13.073Z,94.6
2018-03-21T02:16:13.714Z,94.8
2018-03-21T02:17:14.359Z,94.5
2018-03-21T02:18:15.007Z,94.4
2018-03-21T02:19:15.654Z,94.4
2018-03-21T02:20:16.300Z,94.4
2018-03-21T02:21:16.946Z,94.4
2018-03-21T02:22:17.593Z,94.5
2018-03-21T02:23:18.240Z,94.3
2018-03-21T02:24:18.888Z,94.4
2018-03-21T02:25:19.545Z,95.1
2018-03-21T02:26:20.182Z,94.3
2018-03-21T02:27:20.829Z,94.3
2018-03-21T02:28:21.478Z,94.3
2018-03-21T02:29:22.125Z,94.5
2018-03-21T02:30:22.773Z,94.4
2018-03-21T02:31:23.420Z,94.7
2018-03-21T02:32:24.069Z,94.3
2018-03-21T02:33:24.719Z,94.6
2018-03-21T02:34:25.367Z,94.4
2018-03-21T02:35:26.011Z,94.4
2018-03-21T02:36:26.657Z,94.4
2018-03-21T02:37:27.310Z,94.4
2018-03-21T02:38:27.988Z,94.0
2018-03-21T02:39:28.643Z,94.5
2018-03-21T02:40:29.281Z,94.4
2018-03-21T02:41:29.929Z,94.5
2018-03-21T02:42:30.577Z,94.1
2018-03-21T02:43:31.224Z,94.5
2018-03-21T02:44:31.870Z,94.2
2018-03-21T02:45:32.516Z,94.6
2018-03-21T02:46:33.165Z,94.4
2018-03-21T02:47:33.815Z,94.4
2018-03-21T02:48:34.457Z,94.0
2018-03-21T02:49:35.106Z,94.3
2018-03-21T02:50:35.751Z,94.4
2018-03-21T02:51:36.400Z,94.3
2018-03-21T02:52:37.048Z,94.2
2018-03-21T02:53:37.695Z,94.5
2018-03-21T02:54:38.343Z,94.5
2018-03-21T02:55:38.989Z,94.5
2018-03-21T02:56:39.635Z,94.7
2018-03-21T02:57:40.289Z,93.9
2018-03-21T02:58:40.964Z,94.0
2018-03-21T02:59:41.613Z,94.2
2018-03-21T03:00:42.261Z,93.9
2018-03-21T03:01:42.907Z,93.8
2018-03-21T03:02:43.554Z,94.5
2018-03-21T03:03:44.204Z,93.8
2018-03-21T03:04:44.884Z,93.9
2018-03-21T03:05:45.532Z,93.4
2018-03-21T03:06:46.178Z,93.5
2018-03-21T03:07:46.863Z,93.5
2018-03-21T03:08:47.507Z,93.6
2018-03-21T03:09:48.153Z,93.6
2018-03-21T03:10:48.801Z,93.1
2018-03-21T03:11:49.486Z,93.5
2018-03-21T03:12:50.131Z,93.6
2018-03-21T03:13:50.781Z,93.5
2018-03-21T03:14:51.424Z,93.6
2018-03-21T03:15:52.070Z,93.5
2018-03-21T03:16:52.719Z,93.5
2018-03-21T03:17:53.367Z,93.4
2018-03-21T03:18:54.013Z,93.3
2018-03-21T03:19:54.659Z,93.3
2018-03-21T03:20:55.306Z,93.3
2018-03-21T03:21:55.963Z,93.5
2018-03-21T03:22:56.603Z,93.3
2018-03-21T03:23:57.247Z,93.4
2018-03-21T03:24:57.892Z,93.5
2018-03-21T03:25:58.540Z,93.5
2018-03-21T03:26:59.185Z,93.9
2018-03-21T03:27:59.831Z,93.2
2018-03-21T03:29:00.478Z,93.5
2018-03-21T03:30:01.126Z,93.0
2018-03-21T03:31:01.775Z,93.0
2018-03-21T03:32:02.422Z,92.9
2018-03-21T03:33:03.070Z,92.9
2018-03-21T03:34:03.714Z,92.7
2018-03-21T03:35:04.361Z,92.7
2018-03-21T03:36:05.009Z,92.7
2018-03-21T03:37:05.654Z,92.9
2018-03-21T03:38:06.301Z,92.7
2018-03-21T03:39:06.947Z,92.9
2018-03-21T03:40:07.595Z,92.7
2018-03-21T03:41:08.240Z,92.5
2018-03-21T03:42:08.886Z,92.5
2018-03-21T03:43:09.550Z,92.6
2018-03-21T03:44:10.178Z,92.9
2018-03-21T03:45:10.828Z,92.1
2018-03-21T03:46:11.508Z,92.9
2018-03-21T03:47:12.155Z,93.0
2018-03-21T03:48:12.802Z,92.7
2018-03-21T03:49:13.451Z,92.5
2018-03-21T03:50:14.101Z,93.0
2018-03-21T03:51:14.780Z,92.8
2018-03-21T03:52:15.426Z,93.1
2018-03-21T03:53:16.074Z,92.9
2018-03-21T03:54:16.720Z,93.1
2018-03-21T03:55:17.368Z,92.7
2018-03-21T03:56:18.014Z,93.1
2018-03-21T03:57:18.661Z,93.0
2018-03-21T03:58:19.560Z,92.7
2018-03-21T03:59:20.207Z,92.7
2018-03-21T04:00:20.852Z,92.9
2018-03-21T04:01:21.500Z,92.7
2018-03-21T04:02:22.147Z,92.7
2018-03-21T04:03:22.792Z,93.0
2018-03-21T04:04:23.439Z,92.9
2018-03-21T04:05:24.084Z,93.0
2018-03-21T04:06:24.744Z,93.0
2018-03-21T04:07:25.377Z,93.0
2018-03-21T04:08:26.023Z,92.5
2018-03-21T04:09:26.685Z,93.0
2018-03-21T04:10:27.353Z,93.0
2018-03-21T04:11:28.002Z,93.0
2018-03-21T04:12:28.647Z,92.9
2018-03-21T04:13:29.296Z,92.6
2018-03-21T04:14:29.938Z,92.5
2018-03-21T04:15:30.586Z,92.8
2018-03-21T04:16:31.232Z,92.9
2018-03-21T04:17:31.877Z,92.9
2018-03-21T04:18:32.525Z,93.0
2018-03-21T04:19:33.172Z,92.8
2018-03-21T04:20:33.818Z,93.0
2018-03-21T04:21:34.500Z,92.9
2018-03-21T04:22:35.149Z,92.6
2018-03-21T04:23:35.794Z,93.0
2018-03-21T04:24:36.441Z,92.6
2018-03-21T04:25:37.087Z,93.0
2018-03-21T04:26:37.734Z,93.0
2018-03-21T04:27:38.378Z,93.0
2018-03-21T04:28:39.027Z,93.0
2018-03-21T04:29:39.676Z,93.0
2018-03-21T04:30:40.319Z,92.6
2018-03-21T04:31:41.000Z,93.2
2018-03-21T04:32:41.647Z,92.9
2018-03-21T04:33:42.292Z,92.9
2018-03-21T04:34:42.937Z,93.0
2018-03-21T04:35:43.584Z,92.9
2018-03-21T04:36:44.231Z,92.4
2018-03-21T04:37:44.878Z,92.6
2018-03-21T04:38:45.523Z,92.4
2018-03-21T04:39:46.169Z,92.4
2018-03-21T04:40:46.817Z,92.4
2018-03-21T04:41:47.462Z,92.7
2018-03-21T04:42:48.145Z,92.2
2018-03-21T04:43:48.829Z,92.9
2018-03-21T04:44:49.478Z,92.7
2018-03-21T04:45:50.124Z,92.7
2018-03-21T04:46:50.773Z,92.6
2018-03-21T04:47:51.415Z,93.0
2018-03-21T04:48:52.097Z,93.0
2018-03-21T04:49:52.743Z,92.7
2018-03-21T04:50:53.388Z,93.0
2018-03-21T04:51:54.035Z,92.9
2018-03-21T04:52:54.680Z,92.9
2018-03-21T04:53:55.327Z,92.7
2018-03-21T04:54:55.972Z,92.9
2018-03-21T04:55:56.617Z,93.0
2018-03-21T04:56:57.265Z,93.1
2018-03-21T04:57:57.913Z,93.2
2018-03-21T04:58:58.560Z,93.3
2018-03-21T04:59:59.208Z,92.9
2018-03-21T05:00:59.855Z,92.7
2018-03-21T05:02:00.502Z,92.9
2018-03-21T05:03:01.148Z,92.6
2018-03-21T05:04:01.798Z,92.9
2018-03-21T05:05:02.448Z,92.8
2018-03-21T05:06:03.093Z,93.0
2018-03-21T05:07:03.739Z,92.9
2018-03-21T05:08:04.387Z,93.1
2018-03-21T05:09:05.035Z,92.8
2018-03-21T05:10:05.718Z,92.7
2018-03-21T05:11:06.364Z,93.7
2018-03-21T05:12:07.013Z,93.8
2018-03-21T05:13:07.676Z,92.8
2018-03-21T05:14:08.347Z,92.5
2018-03-21T05:15:08.995Z,93.0
2018-03-21T05:16:09.642Z,93.1
2018-03-21T05:17:10.291Z,92.4
2018-03-21T05:18:10.939Z,92.6
2018-03-21T05:19:11.586Z,93.2
2018-03-21T05:20:12.235Z,92.8
2018-03-21T05:21:12.884Z,93.1
2018-03-21T05:22:13.531Z,92.6
2018-03-21T05:23:14.178Z,92.5
2018-03-21T05:24:14.829Z,92.6
2018-03-21T05:25:15.478Z,92.6
2018-03-21T05:26:16.126Z,92.5
2018-03-21T05:27:16.776Z,92.1
2018-03-21T05:28:17.424Z,92.5
2018-03-21T05:29:18.073Z,92.6
2018-03-21T05:30:18.722Z,92.0
2018-03-21T05:31:19.372Z,92.3
2018-03-21T05:32:20.020Z,91.8
2018-03-21T05:33:20.671Z,92.2
2018-03-21T05:34:21.321Z,92.0
2018-03-21T05:35:21.969Z,92.3
2018-03-21T05:36:22.616Z,91.9
2018-03-21T05:37:23.266Z,92.6
2018-03-21T05:38:23.914Z,92.6
2018-03-21T05:39:24.562Z,92.4
2018-03-21T05:40:25.213Z,92.2
2018-03-21T05:41:25.862Z,92.2
2018-03-21T05:42:26.513Z,92.1
2018-03-21T05:43:27.159Z,92.0
2018-03-21T05:44:27.811Z,92.4
2018-03-21T05:45:28.458Z,92.4
2018-03-21T05:46:29.162Z,92.3
2018-03-21T05:47:29.758Z,92.1
2018-03-21T05:48:30.408Z,92.2
2018-03-21T05:49:31.056Z,92.4
2018-03-21T05:50:31.705Z,92.6
2018-03-21T05:51:32.354Z,92.1
2018-03-21T05:52:33.005Z,92.6
2018-03-21T05:53:33.655Z,93.1
2018-03-21T05:54:34.312Z,92.9
2018-03-21T05:55:34.956Z,92.9
2018-03-21T05:56:35.609Z,92.6
2018-03-21T05:57:36.259Z,92.8
2018-03-21T05:58:36.917Z,92.3
2018-03-21T05:59:37.560Z,92.6
2018-03-21T06:00:38.208Z,92.6
2018-03-21T06:01:38.858Z,92.1
2018-03-21T06:02:39.509Z,92.6
2018-03-21T06:03:40.163Z,92.2
2018-03-21T06:04:40.846Z,92.1
2018-03-21T06:05:41.497Z,92.4
2018-03-21T06:06:42.146Z,92.5
2018-03-21T06:07:42.795Z,92.4
2018-03-21T06:08:43.452Z,92.2
2018-03-21T06:09:44.104Z,92.4
2018-03-21T06:10:44.783Z,92.7
2018-03-21T06:11:45.434Z,91.9
2018-03-21T06:12:46.087Z,92.4
2018-03-21T06:13:46.738Z,92.2
2018-03-21T06:14:47.425Z,91.3
2018-03-21T06:15:48.060Z,91.2
2018-03-21T06:16:48.685Z,91.5
2018-03-21T06:17:49.336Z,91.1
2018-03-21T06:18:49.990Z,90.9
2018-03-21T06:19:50.640Z,90.8
2018-03-21T06:20:51.287Z,90.7
2018-03-21T06:21:51.989Z,91.1
2018-03-21T06:22:52.587Z,90.8
2018-03-21T06:23:53.237Z,90.4
2018-03-21T06:24:53.924Z,90.5
2018-03-21T06:25:54.574Z,90.6
2018-03-21T06:26:55.224Z,90.9
2018-03-21T06:27:55.876Z,91.0
2018-03-21T06:28:56.535Z,90.7
2018-03-21T06:29:57.177Z,90.7
2018-03-21T06:30:57.828Z,91.0
2018-03-21T06:31:58.480Z,90.6
2018-03-21T06:32:59.130Z,90.6
2018-03-21T06:33:59.779Z,90.6
2018-03-21T06:35:00.429Z,90.5
2018-03-21T06:36:01.081Z,90.2
2018-03-21T06:37:01.734Z,90.6
2018-03-21T06:38:02.426Z,90.4
2018-03-21T06:39:03.038Z,90.6
2018-03-21T06:40:03.738Z,90.2
2018-03-21T06:41:04.388Z,89.7
2018-03-21T06:42:05.038Z,90.4
2018-03-21T06:43:05.687Z,90.6
2018-03-21T06:44:06.339Z,90.4
2018-03-21T06:45:06.988Z,90.6
2018-03-21T06:46:07.642Z,90.3
2018-03-21T06:47:08.329Z,90.1
2018-03-21T06:48:08.981Z,89.8
2018-03-21T06:49:09.632Z,90.0
2018-03-21T06:50:10.283Z,89.9
2018-03-21T06:51:10.937Z,90.1
2018-03-21T06:52:11.619Z,90.1
2018-03-21T06:53:12.269Z,89.8
2018-03-21T06:54:12.919Z,89.6
2018-03-21T06:55:13.620Z,90.2
2018-03-21T06:56:14.223Z,89.5
2018-03-21T06:57:14.873Z,89.5
2018-03-21T06:58:15.522Z,89.7
2018-03-21T06:59:16.173Z,89.3
2018-03-21T07:00:16.824Z,89.4
2018-03-21T07:01:17.474Z,90.3
2018-03-21T07:02:18.125Z,89.8
2018-03-21T07:03:18.777Z,89.7
2018-03-21T07:04:19.429Z,89.6
2018-03-21T07:05:20.080Z,89.0
2018-03-21T07:06:20.729Z,89.3
2018-03-21T07:07:21.379Z,89.1
2018-03-21T07:08:22.031Z,89.4
2018-03-21T07:09:22.682Z,89.6
2018-03-21T07:10:23.334Z,89.5
2018-03-21T07:11:23.984Z,89.1
2018-03-21T07:12:24.635Z,90.0
2018-03-21T07:13:25.287Z,90.1
2018-03-21T07:14:25.939Z,89.9
2018-03-21T07:15:26.588Z,90.1
2018-03-21T07:16:27.238Z,90.0
2018-03-21T07:17:27.928Z,90.3
2018-03-21T07:18:28.542Z,89.4
2018-03-21T07:19:29.193Z,89.5
2018-03-21T07:20:29.881Z,89.3
2018-03-21T07:21:30.533Z,89.7
2018-03-21T07:22:31.184Z,89.4
2018-03-21T07:23:31.873Z,89.4
2018-03-21T07:24:32.523Z,89.5
2018-03-21T07:25:33.210Z,89.7
2018-03-21T07:26:33.862Z,89.5
2018-03-21T07:27:34.515Z,89.4
2018-03-21T07:28:35.166Z,89.4
2018-03-21T07:29:35.853Z,89.4
2018-03-21T07:30:36.505Z,89.5
2018-03-21T07:31:37.157Z,89.2
2018-03-21T07:32:37.809Z,88.9
2018-03-21T07:33:38.459Z,88.5
2018-03-21T07:34:39.113Z,88.7
2018-03-21T07:35:39.805Z,88.7
2018-03-21T07:36:40.455Z,88.7
2018-03-21T07:37:41.107Z,88.6
2018-03-21T07:38:41.757Z,88.7
2018-03-21T07:39:42.413Z,88.6
2018-03-21T07:40:43.063Z,88.5
2018-03-21T07:41:43.714Z,88.3
2018-03-21T07:42:44.406Z,88.3
2018-03-21T07:43:45.060Z,88.3
2018-03-21T07:44:45.710Z,87.9
2018-03-21T07:45:46.363Z,87.8
2018-03-21T07:46:47.014Z,87.2
2018-03-21T07:47:47.668Z,87.0
2018-03-21T07:48:48.321Z,87.2
2018-03-21T07:49:48.980Z,87.3
2018-03-21T07:50:49.778Z,86.7
2018-03-21T07:51:50.430Z,86.3
2018-03-21T07:52:51.142Z,85.2
2018-03-21T07:53:51.735Z,83.8
2018-03-21T07:54:52.387Z,81.2
2018-03-21T07:55:53.040Z,78.7
2018-03-21T07:56:53.691Z,76.9
2018-03-21T07:57:54.345Z,73.9
2018-03-21T07:58:54.998Z,71.6
2018-03-21T07:59:55.649Z,68.5
2018-03-21T08:00:56.353Z,66.3
2018-03-21T08:01:57.005Z,64.7
2018-03-21T08:02:57.658Z,62.9
2018-03-21T08:03:58.314Z,60.0
2018-03-21T08:04:58.966Z,58.4
2018-03-21T08:05:59.621Z,56.5
2018-03-21T08:07:00.313Z,56.0
2018-03-21T08:08:00.970Z,54.4
2018-03-21T08:09:01.626Z,52.2
2018-03-21T08:10:02.281Z,50.9
2018-03-21T08:11:02.935Z,50.1
2018-03-21T08:12:03.596Z,49.8
2018-03-21T08:13:04.300Z,49.6
2018-03-21T08:14:04.901Z,48.2
2018-03-21T08:15:05.560Z,48.1
2018-03-21T08:16:06.216Z,47.9
2018-03-21T08:17:06.873Z,47.2
2018-03-21T08:18:07.566Z,47.2
2018-03-21T08:19:08.223Z,48.3
2018-03-21T08:20:08.882Z,47.9
2018-03-21T08:21:09.536Z,47.1
2018-03-21T08:22:10.193Z,46.8
2018-03-21T08:23:10.855Z,46.8
2018-03-21T08:24:11.552Z,45.7
2018-03-21T08:25:12.211Z,45.1
2018-03-21T08:26:12.869Z,44.4
2018-03-21T08:27:13.564Z,44.0
2018-03-21T08:28:14.223Z,42.3
2018-03-21T08:29:14.883Z,42.4
2018-03-21T08:30:15.543Z,42.6
2018-03-21T08:31:16.203Z,42.5
2018-03-21T08:32:16.864Z,42.4
2018-03-21T08:33:17.525Z,41.6
2018-03-21T08:34:18.184Z,41.9
2018-03-21T08:35:18.845Z,42.4
2018-03-21T08:36:19.505Z,43.2
2018-03-21T08:37:20.170Z,43.1
2018-03-21T08:38:20.826Z,42.7
2018-03-21T08:39:21.486Z,42.2
2018-03-21T08:40:22.147Z,41.9
2018-03-21T08:41:22.808Z,41.3
2018-03-21T08:42:23.539Z,41.2
2018-03-21T08:43:24.131Z,41.0
2018-03-21T08:44:24.792Z,40.8
2018-03-21T08:45:25.452Z,40.7
2018-03-21T08:46:26.163Z,40.8
2018-03-21T08:47:26.822Z,41.1
2018-03-21T08:48:27.521Z,40.8
2018-03-21T08:49:28.179Z,41.3
2018-03-21T08:50:28.840Z,41.8
2018-03-21T08:51:29.501Z,41.5
2018-03-21T08:52:30.164Z,41.7
2018-03-21T08:53:30.824Z,43.1
2018-03-21T08:54:31.486Z,43.5
2018-03-21T08:55:32.147Z,43.5
2018-03-21T08:56:32.844Z,43.2
2018-03-21T08:57:33.505Z,44.0
2018-03-21T08:58:34.166Z,44.8
2018-03-21T08:59:34.834Z,44.5
2018-03-21T09:00:35.488Z,44.8
2018-03-21T09:01:36.150Z,44.3
2018-03-21T09:02:36.811Z,44.1
2018-03-21T09:03:37.473Z,44.8
2018-03-21T09:04:38.133Z,45.3
2018-03-21T09:05:38.793Z,44.2
2018-03-21T09:06:39.453Z,43.8
2018-03-21T09:07:40.114Z,43.3
2018-03-21T09:08:40.776Z,43.4
2018-03-21T09:09:41.437Z,43.1
2018-03-21T09:10:42.096Z,43.8
2018-03-21T09:11:42.758Z,44.5
2018-03-21T09:12:43.419Z,45.0
2018-03-21T09:13:44.082Z,45.8
2018-03-21T09:14:44.744Z,45.9
2018-03-21T09:15:45.404Z,45.8
2018-03-21T09:16:46.064Z,45.5
2018-03-21T09:17:46.731Z,46.4
2018-03-21T09:18:47.391Z,46.9
2018-03-21T09:19:48.053Z,45.6
2018-03-21T09:20:48.712Z,45.9
2018-03-21T09:21:49.374Z,47.0
2018-03-21T09:22:50.034Z,47.7
2018-03-21T09:23:50.694Z,49.4
2018-03-21T09:24:51.356Z,48.1
2018-03-21T09:25:52.019Z,47.3
2018-03-21T09:26:52.681Z,47.1
2018-03-21T09:27:53.343Z,47.3
2018-03-21T09:28:54.003Z,47.3
2018-03-21T09:29:54.662Z,46.9
2018-03-21T09:30:55.322Z,48.0
2018-03-21T09:31:56.131Z,47.5
2018-03-21T09:32:56.743Z,48.3
2018-03-21T09:33:57.404Z,47.1
2018-03-21T09:34:58.065Z,47.3
2018-03-21T09:35:58.725Z,47.4
2018-03-21T09:36:59.384Z,48.3
2018-03-21T09:38:00.046Z,47.8
2018-03-21T09:39:00.736Z,48.2
2018-03-21T09:40:01.369Z,48.9
2018-03-21T09:41:02.032Z,47.7
2018-03-21T09:42:02.692Z,48.2
2018-03-21T09:43:03.350Z,48.2
2018-03-21T09:44:04.009Z,48.5
2018-03-21T09:45:04.669Z,48.3
2018-03-21T09:46:05.329Z,48.6
2018-03-21T09:47:05.988Z,49.7
2018-03-21T09:48:06.649Z,48.9
2018-03-21T09:49:07.310Z,49.4
2018-03-21T09:50:07.969Z,51.0
2018-03-21T09:51:08.626Z,51.2
2018-03-21T09:52:09.285Z,51.2
2018-03-21T09:53:09.945Z,50.3
2018-03-21T09:54:10.604Z,50.5
2018-03-21T09:55:11.264Z,50.3
2018-03-21T09:56:11.921Z,49.7
2018-03-21T09:57:12.583Z,49.7
2018-03-21T09:58:13.244Z,49.2
2018-03-21T09:59:13.902Z,49.6
2018-03-21T10:00:14.562Z,49.6
2018-03-21T10:01:15.223Z,48.9
2018-03-21T10:02:15.916Z,49.0
2018-03-21T10:03:16.574Z,48.0
2018-03-21T10:04:17.235Z,48.2
2018-03-21T10:05:17.931Z,48.5
2018-03-21T10:06:18.641Z,49.5
2018-03-21T10:07:19.298Z,49.4
2018-03-21T10:08:19.957Z,49.3
2018-03-21T10:09:20.617Z,49.7
2018-03-21T10:10:21.275Z,49.4
2018-03-21T10:11:21.934Z,48.8
2018-03-21T10:12:22.593Z,48.6
2018-03-21T10:13:23.253Z,49.5
2018-03-21T10:14:23.914Z,49.4
2018-03-21T10:15:24.573Z,49.7
2018-03-21T10:16:25.230Z,49.5
2018-03-21T10:17:25.889Z,49.4
2018-03-21T10:18:26.549Z,48.7
2018-03-21T10:19:27.243Z,49.1
2018-03-21T10:20:27.939Z,49.4
2018-03-21T10:21:28.599Z,50.9
2018-03-21T10:22:29.261Z,50.7
2018-03-21T10:23:29.915Z,51.7
2018-03-21T10:24:30.574Z,52.6
2018-03-21T10:25:31.271Z,52.4
2018-03-21T10:26:31.929Z,53.3
2018-03-21T10:27:32.589Z,52.4
2018-03-21T10:28:33.250Z,51.4
2018-03-21T10:29:33.908Z,51.8
2018-03-21T10:30:34.566Z,51.1
2018-03-21T10:31:35.260Z,51.7
2018-03-21T10:32:35.919Z,52.6
2018-03-21T10:33:36.575Z,52.9
2018-03-21T10:34:37.266Z,53.4
2018-03-21T10:35:37.893Z,53.2
2018-03-21T10:36:38.550Z,53.0
2018-03-21T10:37:39.207Z,53.4
2018-03-21T10:38:39.864Z,54.6
2018-03-21T10:39:40.522Z,52.7
2018-03-21T10:40:41.180Z,53.2
2018-03-21T10:41:41.836Z,54.1
2018-03-21T10:42:42.501Z,53.6
2018-03-21T10:43:43.154Z,52.9
2018-03-21T10:44:43.853Z,52.3
2018-03-21T10:45:44.505Z,52.5
2018-03-21T10:46:45.164Z,52.7
2018-03-21T10:47:45.830Z,54.4
2018-03-21T10:48:46.478Z,53.8
2018-03-21T10:49:47.136Z,51.8
2018-03-21T10:50:47.795Z,51.8
2018-03-21T10:51:48.455Z,51.0
2018-03-21T10:52:49.113Z,51.8
2018-03-21T10:53:49.808Z,51.6
2018-03-21T10:54:50.497Z,51.2
2018-03-21T10:55:51.127Z,51.0
2018-03-21T10:56:51.781Z,51.0
2018-03-21T10:57:52.437Z,51.8
2018-03-21T10:58:53.096Z,52.6
2018-03-21T10:59:53.754Z,52.2
2018-03-21T11:00:54.413Z,50.5
2018-03-21T11:01:55.071Z,50.8
2018-03-21T11:02:55.814Z,51.0
2018-03-21T11:03:56.470Z,50.1
2018-03-21T11:04:57.127Z,50.8
2018-03-21T11:05:57.788Z,52.0
2018-03-21T11:06:58.443Z,52.5
2018-03-21T11:07:59.138Z,53.7
2018-03-21T11:08:59.795Z,53.1
2018-03-21T11:10:00.450Z,53.1
2018-03-21T11:11:01.111Z,53.1
2018-03-21T11:12:01.767Z,53.1
2018-03-21T11:13:02.425Z,52.6
2018-03-21T11:14:03.084Z,53.1
2018-03-21T11:15:03.738Z,53.7
2018-03-21T11:16:04.398Z,54.1
2018-03-21T11:17:05.056Z,54.2
2018-03-21T11:18:05.713Z,52.9
2018-03-21T11:19:06.369Z,49.6
2018-03-21T11:20:07.025Z,48.5
2018-03-21T11:21:07.683Z,49.5
2018-03-21T11:22:08.341Z,48.9
2018-03-21T11:23:08.998Z,45.6
2018-03-21T11:24:09.654Z,45.9
2018-03-21T11:25:10.315Z,45.5
2018-03-21T11:26:11.007Z,44.2
2018-03-21T11:27:11.662Z,43.9
2018-03-21T11:28:12.320Z,43.6
2018-03-21T11:29:12.976Z,43.2
2018-03-21T11:30:13.635Z,43.1
2018-03-21T11:31:14.331Z,42.5
2018-03-21T11:32:14.988Z,43.2
2018-03-21T11:33:15.695Z,43.9
2018-03-21T11:34:16.352Z,42.6
2018-03-21T11:35:17.009Z,41.6
2018-03-21T11:36:17.666Z,42.3
2018-03-21T11:37:18.323Z,44.0
2018-03-21T11:38:18.980Z,43.1
2018-03-21T11:39:19.637Z,43.9
2018-03-21T11:40:20.293Z,45.0
2018-03-21T11:41:20.953Z,45.0
2018-03-21T11:42:21.614Z,45.1
2018-03-21T11:43:22.268Z,43.9
2018-03-21T11:44:22.924Z,44.1
2018-03-21T11:45:23.581Z,43.7
2018-03-21T11:46:24.239Z,42.5
2018-03-21T11:47:24.896Z,41.9
2018-03-21T11:48:25.553Z,41.2
2018-03-21T11:49:26.214Z,40.3
2018-03-21T11:50:26.909Z,39.8
2018-03-21T11:51:27.568Z,39.2
2018-03-21T11:52:28.223Z,39.8
2018-03-21T11:53:28.880Z,40.5
2018-03-21T11:54:29.575Z,39.1
2018-03-21T11:55:30.232Z,38.9
2018-03-21T11:56:30.891Z,38.5
2018-03-21T11:57:31.548Z,38.5
2018-03-21T11:58:32.205Z,38.3
2018-03-21T11:59:32.862Z,38.4
2018-03-21T12:00:33.521Z,37.8
2018-03-21T12:01:34.177Z,37.5
2018-03-21T12:02:34.834Z,37.8
2018-03-21T12:03:35.545Z,37.8
2018-03-21T12:04:36.240Z,38.1
2018-03-21T12:05:36.900Z,37.4
2018-03-21T12:06:37.594Z,38.0
2018-03-21T12:07:38.254Z,38.4
2018-03-21T12:08:39.003Z,38.2
2018-03-21T12:09:39.605Z,37.4
2018-03-21T12:10:40.262Z,38.2
2018-03-21T12:11:40.922Z,37.8
2018-03-21T12:12:41.580Z,38.1
2018-03-21T12:13:42.238Z,37.9
2018-03-21T12:14:42.900Z,37.9
2018-03-21T12:15:43.552Z,38.1
2018-03-21T12:16:44.210Z,37.4
2018-03-21T12:17:44.903Z,38.0
2018-03-21T12:18:45.564Z,38.2
2018-03-21T12:19:46.225Z,38.9
2018-03-21T12:20:46.880Z,37.8
2018-03-21T12:21:47.537Z,37.2
2018-03-21T12:22:48.230Z,37.3
2018-03-21T12:23:48.890Z,36.8
2018-03-21T12:24:49.584Z,35.8
2018-03-21T12:25:50.242Z,35.3
2018-03-21T12:26:50.898Z,37.6
2018-03-21T12:27:51.554Z,37.7
2018-03-21T12:28:52.213Z,37.4
2018-03-21T12:29:52.875Z,37.6
2018-03-21T12:30:53.529Z,38.3
2018-03-21T12:31:54.184Z,37.8
2018-03-21T12:32:54.870Z,38.5
2018-03-21T12:33:55.507Z,38.4
2018-03-21T12:34:56.164Z,37.9
2018-03-21T12:35:56.818Z,36.5
2018-03-21T12:36:57.478Z,36.4
2018-03-21T12:37:58.132Z,37.5
2018-03-21T12:38:58.826Z,38.5
2018-03-21T12:39:59.486Z,37.7
2018-03-21T12:41:00.146Z,37.2
2018-03-21T12:42:00.802Z,37.4
2018-03-21T12:43:01.462Z,38.1
2018-03-21T12:44:02.118Z,38.9
2018-03-21T12:45:02.778Z,38.0
2018-03-21T12:46:03.470Z,37.6
2018-03-21T12:47:04.128Z,37.7
2018-03-21T12:48:04.786Z,38.6
2018-03-21T12:49:05.444Z,39.1
2018-03-21T12:50:06.129Z,39.1
2018-03-21T12:51:06.759Z,39.1
2018-03-21T12:52:07.421Z,40.5
2018-03-21T12:53:08.110Z,40.7
2018-03-21T12:54:08.767Z,40.7
2018-03-21T12:55:09.424Z,40.7
2018-03-21T12:56:10.106Z,40.9
2018-03-21T12:57:10.741Z,40.4
2018-03-21T12:58:11.400Z,39.8
2018-03-21T12:59:12.057Z,40.3
2018-03-21T13:00:12.713Z,40.9
2018-03-21T13:01:13.371Z,40.6
2018-03-21T13:02:14.029Z,40.5
2018-03-21T13:03:14.722Z,40.0
2018-03-21T13:04:15.385Z,40.3
2018-03-21T13:05:16.077Z,40.2
2018-03-21T13:06:16.770Z,39.8
2018-03-21T13:07:17.428Z,40.3
2018-03-21T13:08:18.084Z,41.7
2018-03-21T13:09:18.748Z,41.8
2018-03-21T13:10:19.400Z,41.8
2018-03-21T13:11:20.059Z,42.3
2018-03-21T13:12:20.715Z,42.4
2018-03-21T13:13:21.372Z,41.9
2018-03-21T13:14:22.079Z,41.7
2018-03-21T13:15:22.736Z,41.7
2018-03-21T13:16:23.394Z,42.6
2018-03-21T13:17:24.058Z,42.3
2018-03-21T13:18:24.723Z,42.5
2018-03-21T13:19:25.367Z,43.1
2018-03-21T13:20:26.025Z,44.0
2018-03-21T13:21:26.685Z,43.7
2018-03-21T13:22:27.340Z,44.0
2018-03-21T13:23:27.997Z,44.4
2018-03-21T13:24:28.754Z,44.0
2018-03-21T13:25:29.411Z,44.5
2018-03-21T13:26:30.069Z,44.5
2018-03-21T13:27:30.727Z,44.7